createdAt,value
2018-05-01T00:02:09.906Z,16.04
2018-05-01T00:04:39.563Z,16.05
2018-05-01T00:07:09.170Z,15.98
2018-05-01T00:09:38.780Z,16.00
2018-05-01T00:12:08.422Z,15.92
2018-05-01T00:14:38.050Z,15.87
2018-05-01T00:17:07.401Z,15.91
2018-05-01T00:19:37.059Z,15.86
2018-05-01T00:22:06.677Z,15.81
2018-05-01T00:24:36.321Z,15.82
2018-05-01T00:27:05.969Z,15.76
2018-05-01T00:29:35.597Z,15.65
2018-05-01T00:34:33.705Z,15.49
2018-05-01T00:37:03.339Z,15.42
2018-05-01T00:39:32.959Z,15.39
2018-05-01T00:42:02.618Z,15.37
2018-05-01T00:44:31.986Z,15.37
2018-05-01T00:47:01.600Z,15.31
2018-05-01T00:49:31.259Z,15.27
2018-05-01T00:52:00.879Z,15.23
2018-05-01T00:54:30.155Z,15.18
2018-05-01T00:56:59.864Z,15.15
2018-05-01T00:59:29.490Z,15.12
2018-05-01T01:01:59.139Z,15.13
2018-05-01T01:04:28.785Z,15.10
2018-05-01T01:06:58.409Z,15.09
2018-05-01T01:09:28.054Z,15.10
2018-05-01T01:11:57.711Z,15.13
2018-05-01T01:14:27.098Z,15.06
2018-05-01T01:16:56.748Z,14.98
2018-05-01T01:19:26.398Z,14.98
2018-05-01T01:21:56.020Z,14.94
2018-05-01T01:24:25.694Z,14.89
2018-05-01T01:26:55.438Z,14.91
2018-05-01T01:29:25.060Z,14.94
2018-05-01T01:31:54.130Z,15.03
2018-05-01T01:34:23.284Z,15.05
2018-05-01T01:36:51.799Z,15.00
2018-05-01T01:39:20.318Z,14.90
2018-05-01T01:41:48.879Z,14.80
2018-05-01T01:44:17.408Z,14.55
2018-05-01T01:46:45.915Z,14.38
2018-05-01T01:49:14.556Z,14.23
2018-05-01T01:51:43.072Z,14.15
2018-05-01T01:54:11.602Z,14.13
2018-05-01T01:56:40.162Z,14.21
2018-05-01T01:59:08.670Z,14.35
2018-05-01T02:01:37.188Z,14.31
2018-05-01T02:04:05.751Z,14.26
2018-05-01T02:06:34.250Z,14.26
2018-05-01T02:09:02.759Z,14.26
2018-05-01T02:11:31.045Z,14.18
2018-05-01T02:13:59.574Z,14.10
2018-05-01T02:16:28.093Z,14.08
2018-05-01T02:18:56.643Z,14.17
2018-05-01T02:21:25.145Z,14.30
2018-05-01T02:23:53.381Z,14.33
2018-05-01T02:26:21.983Z,14.39
2018-05-01T02:28:50.678Z,14.43
2018-05-01T02:31:19.188Z,14.43
2018-05-01T02:33:47.754Z,14.38
2018-05-01T02:36:16.274Z,14.36
2018-05-01T02:38:44.792Z,14.44
2018-05-01T02:41:13.401Z,14.59
2018-05-01T02:43:42.078Z,14.71
2018-05-01T02:46:10.590Z,14.76
2018-05-01T02:48:39.136Z,14.77
2018-05-01T02:51:07.647Z,14.67
2018-05-01T02:53:36.232Z,14.52
2018-05-01T02:56:06.498Z,14.48
2018-05-01T02:58:36.089Z,14.47
2018-05-01T03:01:04.648Z,14.47
2018-05-01T03:03:33.191Z,14.52
2018-05-01T03:06:01.700Z,14.56
2018-05-01T03:08:30.211Z,14.62
2018-05-01T03:10:58.763Z,14.59
2018-05-01T03:13:27.398Z,14.77
2018-05-01T03:15:55.912Z,14.82
2018-05-01T03:18:24.480Z,14.77
2018-05-01T03:20:52.982Z,14.68
2018-05-01T03:23:21.487Z,14.55
2018-05-01T03:25:50.044Z,14.44
2018-05-01T03:28:18.556Z,14.42
2018-05-01T03:30:47.083Z,14.39
2018-05-01T03:33:15.640Z,14.37
2018-05-01T03:35:44.157Z,14.35
2018-05-01T03:38:12.668Z,14.36
2018-05-01T03:40:41.231Z,14.35
2018-05-01T03:43:09.760Z,14.28
2018-05-01T03:45:38.280Z,14.34
2018-05-01T03:48:06.913Z,14.31
2018-05-01T03:50:35.165Z,14.30
2018-05-01T03:53:03.677Z,14.31
2018-05-01T03:55:32.235Z,14.30
2018-05-01T03:58:00.487Z,14.38
2018-05-01T04:00:29.005Z,14.32
2018-05-01T04:02:57.269Z,14.29
2018-05-01T04:05:25.501Z,14.31
2018-05-01T04:07:54.016Z,14.53
2018-05-01T04:10:22.563Z,14.63
2018-05-01T04:12:51.070Z,14.62
2018-05-01T04:15:19.307Z,14.61
2018-05-01T04:17:47.846Z,14.65
2018-05-01T04:20:16.350Z,14.63
2018-05-01T04:22:44.855Z,14.62
2018-05-01T04:25:13.416Z,14.56
2018-05-01T04:27:41.654Z,14.48
2018-05-01T04:30:10.164Z,14.41
2018-05-01T04:32:38.705Z,14.35
2018-05-01T04:35:07.221Z,14.27
2018-05-01T04:37:35.736Z,14.09
2018-05-01T04:40:04.293Z,13.87
2018-05-01T04:42:32.802Z,13.65
2018-05-01T04:45:01.322Z,13.52
2018-05-01T04:47:29.965Z,13.46
2018-05-01T04:49:58.476Z,13.37
2018-05-01T04:52:26.983Z,13.29
2018-05-01T04:54:55.518Z,13.19
2018-05-01T04:57:24.031Z,13.10
2018-05-01T04:59:52.552Z,13.05
2018-05-01T05:02:21.119Z,13.02
2018-05-01T05:04:49.622Z,12.99
2018-05-01T05:07:18.122Z,13.00
2018-05-01T05:09:46.671Z,13.00
2018-05-01T05:12:15.170Z,12.90
2018-05-01T05:14:43.671Z,12.88
2018-05-01T05:17:12.225Z,12.86
2018-05-01T05:19:41.242Z,12.84
2018-05-01T05:22:09.771Z,12.86
2018-05-01T05:24:38.315Z,12.87
2018-05-01T05:27:06.822Z,12.92
2018-05-01T05:29:35.337Z,13.02
2018-05-01T05:32:03.889Z,13.23
2018-05-01T05:34:32.456Z,13.56
2018-05-01T05:37:00.974Z,13.84
2018-05-01T05:39:29.631Z,14.14
2018-05-01T05:41:58.147Z,14.55
2018-05-01T05:44:26.663Z,14.94
2018-05-01T05:46:55.220Z,15.19
2018-05-01T05:49:23.504Z,15.39
2018-05-01T05:51:52.009Z,15.46
2018-05-01T05:54:20.577Z,15.46
2018-05-01T05:56:49.320Z,15.55
2018-05-01T05:59:17.826Z,15.59
2018-05-01T06:01:46.411Z,15.64
2018-05-01T06:04:14.916Z,15.62
2018-05-01T06:06:43.452Z,15.62
2018-05-01T06:09:12.005Z,15.64
2018-05-01T06:11:40.517Z,15.59
2018-05-01T06:14:09.018Z,15.71
2018-05-01T06:16:37.554Z,15.95
2018-05-01T06:19:06.059Z,16.19
2018-05-01T06:21:34.558Z,16.50
2018-05-01T06:24:03.116Z,16.88
2018-05-01T06:26:31.631Z,17.32
2018-05-01T06:29:00.140Z,17.84
2018-05-01T06:31:28.701Z,18.45
2018-05-01T06:33:57.299Z,19.02
2018-05-01T06:36:25.824Z,19.95
2018-05-01T06:38:54.382Z,21.97
2018-05-01T06:41:22.890Z,24.23
2018-05-01T06:43:51.412Z,25.94
2018-05-01T06:46:19.955Z,27.19
2018-05-01T06:48:48.468Z,27.44
2018-05-01T06:51:16.986Z,27.28
2018-05-01T06:53:45.537Z,26.64
2018-05-01T06:56:14.031Z,26.24
2018-05-01T06:58:42.530Z,25.76
2018-05-01T07:01:11.071Z,25.84
2018-05-01T07:03:39.604Z,25.99
2018-05-01T07:06:08.107Z,26.71
2018-05-01T07:08:36.667Z,28.01
2018-05-01T07:11:05.747Z,29.74
2018-05-01T07:13:34.855Z,31.44
2018-05-01T07:16:03.998Z,33.05
2018-05-01T07:18:33.097Z,33.84
2018-05-01T07:21:02.176Z,33.13
2018-05-01T07:23:31.311Z,33.20
2018-05-01T07:26:00.629Z,33.79
2018-05-01T07:28:29.736Z,34.83
2018-05-01T07:30:58.881Z,35.50
2018-05-01T07:33:27.967Z,36.03
2018-05-01T07:35:56.795Z,36.38
2018-05-01T07:38:26.056Z,36.40
2018-05-01T07:40:55.140Z,36.50
2018-05-01T07:43:24.249Z,35.72
2018-05-01T07:45:53.385Z,34.28
2018-05-01T07:48:22.482Z,32.99
2018-05-01T07:50:51.588Z,31.59
2018-05-01T07:53:20.715Z,30.29
2018-05-01T07:55:49.811Z,29.60
2018-05-01T07:58:18.910Z,28.98
2018-05-01T08:00:48.058Z,28.39
2018-05-01T08:03:17.139Z,27.65
2018-05-01T08:05:46.232Z,26.95
2018-05-01T08:08:15.355Z,26.17
2018-05-01T08:10:43.876Z,25.35
2018-05-01T08:13:12.383Z,24.66
2018-05-01T08:15:40.923Z,24.16
2018-05-01T08:18:09.441Z,23.76
2018-05-01T08:20:37.955Z,23.47
2018-05-01T08:23:06.620Z,23.16
2018-05-01T08:25:35.219Z,22.89
2018-05-01T08:28:05.144Z,22.72
2018-05-01T08:30:33.488Z,22.49
2018-05-01T08:33:02.499Z,22.37
2018-05-01T08:35:31.046Z,22.36
2018-05-01T08:37:59.614Z,22.49
2018-05-01T08:40:28.133Z,22.92
2018-05-01T08:42:56.660Z,23.87
2018-05-01T08:45:25.313Z,25.11
2018-05-01T08:47:53.964Z,26.24
2018-05-01T08:50:22.467Z,26.86
2018-05-01T08:55:32.549Z,27.90
2018-05-01T08:58:01.189Z,29.02
2018-05-01T09:00:29.699Z,29.66
2018-05-01T09:02:58.260Z,29.50
2018-05-01T09:05:26.773Z,28.59
2018-05-01T09:07:55.312Z,27.69
2018-05-01T09:10:23.877Z,26.97
2018-05-01T09:12:52.389Z,26.39
2018-05-01T09:15:20.918Z,26.42
2018-05-01T09:17:49.592Z,26.55
2018-05-01T09:20:17.977Z,26.72
2018-05-01T09:22:46.475Z,26.83
2018-05-01T09:25:15.051Z,26.89
2018-05-01T09:27:43.567Z,26.96
2018-05-01T09:30:12.075Z,26.95
2018-05-01T09:32:40.622Z,27.03
2018-05-01T09:35:09.541Z,27.10
2018-05-01T09:37:38.834Z,27.21
2018-05-01T09:40:07.976Z,27.04
2018-05-01T09:42:36.499Z,26.90
2018-05-01T09:45:05.644Z,26.83
2018-05-01T09:47:34.829Z,26.89
2018-05-01T09:50:04.064Z,26.95
2018-05-01T09:52:34.256Z,26.65
2018-05-01T09:55:04.178Z,26.36
2018-05-01T09:57:33.801Z,26.14
2018-05-01T10:00:03.485Z,25.85
2018-05-01T10:02:32.933Z,25.69
2018-05-01T10:05:02.570Z,25.58
2018-05-01T10:07:32.187Z,25.46
2018-05-01T10:10:01.850Z,25.13
2018-05-01T10:12:31.462Z,25.05
2018-05-01T10:15:01.075Z,25.10
2018-05-01T10:17:30.728Z,24.97
2018-05-01T10:20:00.175Z,25.03
2018-05-01T10:22:29.919Z,25.31
2018-05-01T10:24:59.358Z,25.63
2018-05-01T10:27:29.307Z,25.91
2018-05-01T10:29:58.929Z,26.13
2018-05-01T10:32:28.587Z,26.27
2018-05-01T10:34:58.212Z,26.20
2018-05-01T10:37:27.827Z,26.18
2018-05-01T10:39:58.059Z,26.07
2018-05-01T10:42:27.674Z,26.03
2018-05-01T10:44:57.311Z,25.95
2018-05-01T10:47:26.963Z,25.86
2018-05-01T10:49:56.621Z,25.89
2018-05-01T10:52:26.215Z,25.97
2018-05-01T10:54:55.880Z,26.06
2018-05-01T10:57:26.062Z,26.15
2018-05-01T10:59:56.293Z,26.26
2018-05-01T11:02:26.546Z,26.31
2018-05-01T11:04:56.755Z,26.17
2018-05-01T11:07:27.009Z,26.02
2018-05-01T11:09:56.645Z,25.88
2018-05-01T11:12:26.195Z,25.67
2018-05-01T11:14:55.855Z,25.58
2018-05-01T11:17:25.555Z,25.56
2018-05-01T11:19:55.343Z,25.56
2018-05-01T11:22:25.013Z,25.54
2018-05-01T11:24:54.395Z,25.37
2018-05-01T11:27:24.017Z,25.22
2018-05-01T11:29:53.687Z,25.13
2018-05-01T11:32:23.303Z,25.16
2018-05-01T11:34:53.007Z,25.35
2018-05-01T11:37:22.680Z,25.49
2018-05-01T11:39:52.297Z,25.54
2018-05-01T11:42:22.051Z,25.48
2018-05-01T11:44:51.799Z,25.52
2018-05-01T11:47:21.572Z,25.68
2018-05-01T11:49:51.217Z,25.83
2018-05-01T11:52:21.448Z,25.82
2018-05-01T11:54:51.642Z,25.77
2018-05-01T11:57:21.288Z,25.66
2018-05-01T11:59:50.928Z,25.63
2018-05-01T12:02:20.548Z,25.51
2018-05-01T12:04:50.264Z,25.34
2018-05-01T12:07:20.043Z,25.06
2018-05-01T12:09:49.653Z,24.93
2018-05-01T12:12:19.271Z,24.76
2018-05-01T12:14:48.935Z,24.67
2018-05-01T12:17:18.556Z,24.55
2018-05-01T12:19:48.175Z,24.57
2018-05-01T12:22:17.862Z,24.55
2018-05-01T12:24:47.483Z,24.54
2018-05-01T12:27:17.126Z,24.36
2018-05-01T12:29:46.787Z,24.22
2018-05-01T12:32:16.402Z,24.11
2018-05-01T12:34:46.049Z,24.08
2018-05-01T12:37:15.724Z,24.16
2018-05-01T12:39:45.352Z,24.42
2018-05-01T12:42:14.771Z,24.69
2018-05-01T12:44:44.175Z,24.88
2018-05-01T12:47:14.397Z,24.96
2018-05-01T12:49:44.033Z,24.92
2018-05-01T12:52:13.706Z,24.85
2018-05-01T12:54:43.331Z,24.93
2018-05-01T12:57:13.015Z,24.97
2018-05-01T12:59:42.643Z,24.96
2018-05-01T13:02:12.268Z,25.09
2018-05-01T13:04:41.943Z,25.25
2018-05-01T13:07:11.732Z,25.37
2018-05-01T13:09:41.356Z,25.42
2018-05-01T13:12:11.081Z,25.37
2018-05-01T13:14:40.691Z,25.27
2018-05-01T13:17:10.341Z,25.31
2018-05-01T13:19:40.583Z,25.48
2018-05-01T13:22:09.619Z,25.68
2018-05-01T13:24:39.011Z,25.81
2018-05-01T13:27:08.447Z,25.89
2018-05-01T13:29:38.073Z,25.89
2018-05-01T13:32:07.710Z,25.87
2018-05-01T13:34:37.373Z,25.83
2018-05-01T13:37:07.000Z,25.89
2018-05-01T13:39:36.717Z,25.97
2018-05-01T13:42:06.378Z,26.11
2018-05-01T13:44:36.030Z,26.15
2018-05-01T13:47:05.476Z,26.17
2018-05-01T13:49:35.140Z,26.11
2018-05-01T13:52:04.256Z,26.14
2018-05-01T13:54:33.879Z,26.18
2018-05-01T13:57:03.596Z,26.32
2018-05-01T13:59:33.386Z,26.36
2018-05-01T14:02:02.772Z,26.31
2018-05-01T14:04:32.517Z,26.27
2018-05-01T14:07:02.275Z,26.22
2018-05-01T14:09:31.973Z,26.26
2018-05-01T14:12:01.628Z,26.27
2018-05-01T14:14:31.254Z,26.30
2018-05-01T14:17:00.888Z,26.28
2018-05-01T14:19:30.583Z,26.14
2018-05-01T14:22:00.194Z,26.09
2018-05-01T14:24:29.812Z,26.08
2018-05-01T14:26:59.461Z,26.08
2018-05-01T14:29:29.089Z,26.12
2018-05-01T14:31:58.726Z,26.15
2018-05-01T14:34:28.408Z,26.12
2018-05-01T14:36:58.028Z,26.04
2018-05-01T14:39:27.849Z,25.88
2018-05-01T14:41:57.506Z,25.84
2018-05-01T14:44:27.124Z,25.79
2018-05-01T14:46:56.745Z,25.79
2018-05-01T14:49:26.428Z,25.84
2018-05-01T14:51:56.647Z,25.90
2018-05-01T14:54:26.876Z,25.84
2018-05-01T14:56:57.119Z,25.65
2018-05-01T14:59:27.083Z,25.56
2018-05-01T15:01:57.296Z,25.50
2018-05-01T15:04:27.531Z,25.51
2018-05-01T15:09:35.185Z,25.61
2018-05-01T15:12:05.370Z,25.50
2018-05-01T15:14:35.138Z,25.40
2018-05-01T15:17:05.408Z,25.28
2018-05-01T15:19:35.027Z,25.22
2018-05-01T15:22:04.668Z,25.08
2018-05-01T15:24:34.342Z,24.91
2018-05-01T15:27:03.495Z,24.87
2018-05-01T15:29:33.119Z,24.87
2018-05-01T15:32:02.770Z,24.85
2018-05-01T15:34:32.478Z,24.77
2018-05-01T15:37:02.104Z,24.74
2018-05-01T15:39:31.785Z,24.78
2018-05-01T15:42:01.419Z,24.77
2018-05-01T15:44:31.058Z,24.77
2018-05-01T15:47:00.714Z,24.70
2018-05-01T15:49:30.358Z,24.29
2018-05-01T15:52:00.073Z,24.38
2018-05-01T15:54:29.728Z,24.51
2018-05-01T15:56:59.363Z,24.53
2018-05-01T15:59:28.982Z,24.50
2018-05-01T16:01:58.629Z,24.49
2018-05-01T16:04:28.029Z,24.49
2018-05-01T16:06:57.656Z,24.35
2018-05-01T16:09:27.314Z,24.35
2018-05-01T16:11:56.960Z,24.32
2018-05-01T16:14:26.338Z,24.31
2018-05-01T16:16:55.759Z,24.31
2018-05-01T16:19:25.152Z,24.21
2018-05-01T16:21:54.768Z,24.19
2018-05-01T16:24:25.032Z,24.23
2018-05-01T16:26:54.689Z,24.22
2018-05-01T16:29:24.079Z,24.10
2018-05-01T16:31:53.735Z,24.13
2018-05-01T16:34:23.346Z,24.13
2018-05-01T16:36:52.991Z,24.07
2018-05-01T16:39:22.701Z,24.07
2018-05-01T16:41:52.374Z,23.96
2018-05-01T16:44:22.030Z,23.96
2018-05-01T16:46:51.696Z,23.97
2018-05-01T16:49:21.317Z,23.95
2018-05-01T16:51:50.950Z,23.88
2018-05-01T16:54:20.608Z,23.85
2018-05-01T16:56:50.241Z,23.85
2018-05-01T16:59:20.153Z,23.85
2018-05-01T17:01:49.824Z,23.48
2018-05-01T17:04:19.441Z,22.91
2018-05-01T17:06:49.318Z,22.74
2018-05-01T17:09:18.978Z,22.89
2018-05-01T17:11:48.616Z,22.82
2018-05-01T17:14:18.284Z,22.71
2018-05-01T17:16:47.947Z,22.34
2018-05-01T17:19:17.418Z,21.75
2018-05-01T17:21:47.040Z,21.43
2018-05-01T17:24:16.474Z,21.90
2018-05-01T17:26:46.093Z,22.05
2018-05-01T17:29:16.263Z,22.24
2018-05-01T17:31:46.069Z,22.28
2018-05-01T17:34:15.703Z,21.04
2018-05-01T17:36:45.350Z,20.21
2018-05-01T17:39:15.136Z,19.66
2018-05-01T17:41:44.760Z,19.27
2018-05-01T17:44:14.374Z,18.99
2018-05-01T17:46:44.209Z,18.76
2018-05-01T17:49:14.063Z,18.59
2018-05-01T17:51:43.811Z,18.37
2018-05-01T17:54:13.482Z,18.22
2018-05-01T17:56:43.096Z,18.05
2018-05-01T17:59:12.744Z,17.97
2018-05-01T18:01:42.500Z,17.83
2018-05-01T18:04:12.110Z,17.66
2018-05-01T18:06:41.748Z,17.55
2018-05-01T18:09:11.386Z,17.48
2018-05-01T18:11:41.029Z,17.44
2018-05-01T18:14:10.658Z,17.40
2018-05-01T18:16:40.247Z,17.37
2018-05-01T18:19:09.855Z,17.37
2018-05-01T18:21:39.492Z,17.41
2018-05-01T18:24:09.152Z,17.38
2018-05-01T18:26:38.776Z,17.40
2018-05-01T18:29:08.400Z,17.35
2018-05-01T18:31:38.072Z,17.23
2018-05-01T18:34:07.724Z,17.16
2018-05-01T18:36:37.346Z,17.07
2018-05-01T18:39:06.453Z,16.94
2018-05-01T18:41:36.102Z,16.88
2018-05-01T18:44:06.068Z,16.68
2018-05-01T18:46:35.739Z,16.08
2018-05-01T18:49:05.373Z,15.59
2018-05-01T18:51:35.114Z,15.28
2018-05-01T18:54:04.774Z,15.11
2018-05-01T18:56:34.477Z,15.06
2018-05-01T18:59:04.107Z,15.05
2018-05-01T19:01:33.779Z,15.18
2018-05-01T19:04:03.417Z,15.24
2018-05-01T19:06:33.186Z,15.16
2018-05-01T19:09:02.859Z,15.20
2018-05-01T19:11:31.990Z,15.18
2018-05-01T19:14:01.387Z,15.20
2018-05-01T19:16:31.075Z,15.02
2018-05-01T19:19:00.843Z,14.85
2018-05-01T19:21:30.501Z,14.71
2018-05-01T19:24:00.171Z,14.62
2018-05-01T19:26:29.804Z,14.53
2018-05-01T19:28:59.442Z,14.48
2018-05-01T19:31:29.123Z,14.36
2018-05-01T19:33:58.768Z,14.24
2018-05-01T19:36:28.416Z,14.09
2018-05-01T19:38:58.091Z,13.97
2018-05-01T19:41:27.738Z,13.91
2018-05-01T19:43:57.410Z,13.86
2018-05-01T19:46:27.095Z,13.81
2018-05-01T19:48:56.719Z,13.77
2018-05-01T19:51:27.211Z,13.80
2018-05-01T19:53:56.874Z,13.77
2018-05-01T19:56:27.115Z,13.74
2018-05-01T19:58:56.934Z,13.69
2018-05-01T20:01:26.624Z,13.69
2018-05-01T20:03:56.260Z,13.70
2018-05-01T20:06:25.899Z,13.73
2018-05-01T20:08:55.651Z,13.69
2018-05-01T20:11:26.262Z,13.69
2018-05-01T20:13:55.921Z,13.67
2018-05-01T20:16:25.588Z,13.70
2018-05-01T20:18:55.230Z,13.66
2018-05-01T20:21:24.850Z,13.55
2018-05-01T20:23:54.522Z,13.51
2018-05-01T20:26:24.160Z,13.47
2018-05-01T20:28:53.799Z,13.40
2018-05-01T20:31:23.463Z,13.44
2018-05-01T20:38:05.309Z,19.18
2018-05-01T20:40:34.951Z,19.54
2018-05-01T20:43:04.593Z,19.16
2018-05-01T20:45:34.271Z,18.59
2018-05-01T20:48:03.638Z,18.06
2018-05-01T20:50:33.288Z,17.46
2018-05-01T20:53:02.978Z,16.95
2018-05-01T20:55:32.635Z,16.54
2018-05-01T20:58:02.275Z,16.21
2018-05-01T21:00:31.943Z,15.90
2018-05-01T21:03:01.582Z,15.68
2018-05-01T21:05:31.280Z,15.56
2018-05-01T21:08:00.960Z,15.53
2018-05-01T21:10:30.594Z,15.86
2018-05-01T21:13:00.268Z,16.05
2018-05-01T21:15:29.637Z,16.06
2018-05-01T21:17:59.267Z,15.94
2018-05-01T21:20:28.937Z,15.93
2018-05-01T21:22:58.577Z,15.94
2018-05-01T21:25:28.243Z,15.96
2018-05-01T21:27:57.903Z,15.92
2018-05-01T21:30:27.531Z,15.87
2018-05-01T21:32:57.179Z,15.76
2018-05-01T21:35:26.843Z,15.59
2018-05-01T21:37:56.182Z,15.57
2018-05-01T21:40:25.819Z,15.43
2018-05-01T21:42:55.557Z,15.20
2018-05-01T21:45:25.346Z,15.14
2018-05-01T21:47:54.994Z,15.18
2018-05-01T21:50:24.668Z,15.21
2018-05-01T21:52:54.289Z,15.12
2018-05-01T21:55:23.936Z,15.09
2018-05-01T21:57:53.605Z,14.96
2018-05-01T22:00:23.232Z,14.85
2018-05-01T22:02:52.591Z,14.84
2018-05-01T22:05:22.323Z,14.83
2018-05-01T22:07:51.951Z,14.80
2018-05-01T22:10:21.295Z,14.76
2018-05-01T22:12:50.922Z,14.70
2018-05-01T22:15:20.551Z,14.63
2018-05-01T22:17:50.167Z,14.52
2018-05-01T22:20:19.832Z,14.47
2018-05-01T22:22:49.455Z,14.38
2018-05-01T22:25:19.084Z,14.34
2018-05-01T22:27:48.747Z,14.27
2018-05-01T22:30:18.369Z,14.21
2018-05-01T22:32:48.083Z,14.18
2018-05-01T22:35:17.714Z,14.10
2018-05-01T22:37:47.325Z,14.04
2018-05-01T22:40:16.991Z,13.93
2018-05-01T22:42:46.602Z,13.97
2018-05-01T22:45:16.209Z,13.99
2018-05-01T22:47:45.864Z,14.00
2018-05-01T22:50:15.474Z,14.08
2018-05-01T22:52:45.100Z,14.14
2018-05-01T22:55:14.772Z,14.20
2018-05-01T22:57:44.400Z,14.20
2018-05-01T23:00:13.468Z,14.17
2018-05-01T23:02:42.658Z,14.18
2018-05-01T23:05:12.276Z,14.16
2018-05-01T23:07:41.913Z,14.14
2018-05-01T23:10:11.576Z,14.11
2018-05-01T23:12:41.198Z,14.08
2018-05-01T23:15:10.835Z,14.09
2018-05-01T23:17:40.500Z,14.07
2018-05-01T23:20:10.148Z,14.08
2018-05-01T23:22:39.793Z,14.03
2018-05-01T23:25:09.459Z,14.07
2018-05-01T23:27:39.119Z,14.07
2018-05-01T23:30:08.759Z,14.08
2018-05-01T23:32:38.152Z,14.12
2018-05-01T23:35:07.762Z,14.13
2018-05-01T23:37:37.105Z,14.15
2018-05-01T23:40:06.775Z,14.12
2018-05-01T23:42:36.401Z,14.13
2018-05-01T23:45:06.024Z,14.14
2018-05-01T23:47:35.698Z,14.12
2018-05-01T23:50:05.088Z,14.16
2018-05-01T23:52:34.711Z,14.14
2018-05-01T23:55:04.398Z,14.13
2018-05-01T23:57:34.040Z,14.10
